Denver, Colorado
Traffic Map
Current Weather Conditions
Denver, Colorado
Broken Clouds
Broken Clouds
21°
Feels Like: 21°
Wind Chill: 21° Ceiling: 23000
Heat Index: 21° Visibility: 10mi
Dew Point: 12° Wind: 17mph
Humidity: 55% Direction: 190° (S)
Pressure: 30.35in Gusts: 0mph
Raw Report DataKBKF 310658Z 19015KT 10SM BKN230 21/12 A3035 RMK AO2A SLP195 T02100117 403190146
Traffic Incident Summary
Active as of:
Severity:
Category:
InformationThere was an issue retrieving the traffic information for this location. Please try a different location or try again shortly.
Advertisements
Track Severe Weather on mobile